sensor_id;sensor_type;location;lat;lon;timestamp;temperature;humidity
22450;DHT22;11392;57.390;-2.468;2023-07-29T00:01:59;14.30;99.90
22450;DHT22;11392;57.390;-2.468;2023-07-29T00:04:26;14.30;99.90
22450;DHT22;11392;57.390;-2.468;2023-07-29T00:06:53;14.30;99.90
22450;DHT22;11392;57.390;-2.468;2023-07-29T00:09:20;14.20;99.90
22450;DHT22;11392;57.390;-2.468;2023-07-29T00:11:47;13.90;99.90
22450;DHT22;11392;57.390;-2.468;2023-07-29T00:14:14;13.90;99.90
22450;DHT22;11392;57.390;-2.468;2023-07-29T00:16:41;13.80;99.90
22450;DHT22;11392;57.390;-2.468;2023-07-29T00:19:09;13.90;99.90
22450;DHT22;11392;57.390;-2.468;2023-07-29T00:21:36;13.90;99.90
22450;DHT22;11392;57.390;-2.468;2023-07-29T00:24:04;13.90;99.90
22450;DHT22;11392;57.390;-2.468;2023-07-29T00:26:31;13.90;99.90
22450;DHT22;11392;57.390;-2.468;2023-07-29T00:28:59;13.90;99.90
22450;DHT22;11392;57.390;-2.468;2023-07-29T00:31:26;13.90;99.90
22450;DHT22;11392;57.390;-2.468;2023-07-29T00:33:53;13.80;99.90
22450;DHT22;11392;57.390;-2.468;2023-07-29T00:36:20;13.80;99.90
22450;DHT22;11392;57.390;-2.468;2023-07-29T00:38:47;13.90;99.90
22450;DHT22;11392;57.390;-2.468;2023-07-29T00:41:15;13.80;99.90
22450;DHT22;11392;57.390;-2.468;2023-07-29T00:43:42;13.90;99.90
22450;DHT22;11392;57.390;-2.468;2023-07-29T00:46:09;13.90;99.90
22450;DHT22;11392;57.390;-2.468;2023-07-29T00:48:37;13.90;99.90
22450;DHT22;11392;57.390;-2.468;2023-07-29T00:51:05;13.90;99.90
22450;DHT22;11392;57.390;-2.468;2023-07-29T00:53:32;13.90;99.90
22450;DHT22;11392;57.390;-2.468;2023-07-29T00:56:00;13.90;99.90
22450;DHT22;11392;57.390;-2.468;2023-07-29T00:58:27;13.90;99.90
22450;DHT22;11392;57.390;-2.468;2023-07-29T01:00:54;14.00;99.90
22450;DHT22;11392;57.390;-2.468;2023-07-29T01:03:22;14.00;99.90
22450;DHT22;11392;57.390;-2.468;2023-07-29T01:11:57;13.80;99.90
22450;DHT22;11392;57.390;-2.468;2023-07-29T01:14:34;13.80;99.90
22450;DHT22;11392;57.390;-2.468;2023-07-29T01:17:09;13.70;99.90
22450;DHT22;11392;57.390;-2.468;2023-07-29T01:22:25;13.60;99.90
22450;DHT22;11392;57.390;-2.468;2023-07-29T01:24:52;13.70;99.90
22450;DHT22;11392;57.390;-2.468;2023-07-29T01:27:19;13.70;99.90
22450;DHT22;11392;57.390;-2.468;2023-07-29T01:29:46;13.50;99.90
22450;DHT22;11392;57.390;-2.468;2023-07-29T01:35:44;13.60;99.90
22450;DHT22;11392;57.390;-2.468;2023-07-29T01:40:42;13.80;99.90
22450;DHT22;11392;57.390;-2.468;2023-07-29T01:43:10;13.70;99.90
22450;DHT22;11392;57.390;-2.468;2023-07-29T01:45:38;13.60;99.90
22450;DHT22;11392;57.390;-2.468;2023-07-29T01:48:07;13.40;99.90
22450;DHT22;11392;57.390;-2.468;2023-07-29T01:50:34;13.30;99.90
22450;DHT22;11392;57.390;-2.468;2023-07-29T01:53:02;13.30;99.90
22450;DHT22;11392;57.390;-2.468;2023-07-29T01:55:29;13.30;99.90
22450;DHT22;11392;57.390;-2.468;2023-07-29T01:57:56;13.40;99.90
22450;DHT22;11392;57.390;-2.468;2023-07-29T02:00:25;13.60;99.90
22450;DHT22;11392;57.390;-2.468;2023-07-29T02:02:52;13.60;99.90
22450;DHT22;11392;57.390;-2.468;2023-07-29T02:05:19;13.50;99.90
22450;DHT22;11392;57.390;-2.468;2023-07-29T02:07:46;13.50;99.90
22450;DHT22;11392;57.390;-2.468;2023-07-29T02:10:13;13.60;99.90
22450;DHT22;11392;57.390;-2.468;2023-07-29T02:12:40;13.60;99.90
22450;DHT22;11392;57.390;-2.468;2023-07-29T02:15:07;13.50;99.90
22450;DHT22;11392;57.390;-2.468;2023-07-29T02:17:34;13.40;99.90
22450;DHT22;11392;57.390;-2.468;2023-07-29T02:20:02;13.50;99.90
22450;DHT22;11392;57.390;-2.468;2023-07-29T02:22:30;13.60;99.90
22450;DHT22;11392;57.390;-2.468;2023-07-29T02:24:57;13.60;99.90
22450;DHT22;11392;57.390;-2.468;2023-07-29T02:27:24;13.70;99.90
22450;DHT22;11392;57.390;-2.468;2023-07-29T02:29:54;13.60;99.90
22450;DHT22;11392;57.390;-2.468;2023-07-29T02:32:21;13.70;99.90
22450;DHT22;11392;57.390;-2.468;2023-07-29T02:34:49;13.70;99.90
22450;DHT22;11392;57.390;-2.468;2023-07-29T02:37:16;13.70;99.90
22450;DHT22;11392;57.390;-2.468;2023-07-29T02:39:43;13.60;99.90
22450;DHT22;11392;57.390;-2.468;2023-07-29T02:42:10;13.60;99.90
22450;DHT22;11392;57.390;-2.468;2023-07-29T02:44:38;13.70;99.90
22450;DHT22;11392;57.390;-2.468;2023-07-29T02:47:05;13.70;99.90
22450;DHT22;11392;57.390;-2.468;2023-07-29T02:49:32;13.80;99.90
22450;DHT22;11392;57.390;-2.468;2023-07-29T02:51:59;13.80;99.90
22450;DHT22;11392;57.390;-2.468;2023-07-29T02:54:26;13.80;99.90
22450;DHT22;11392;57.390;-2.468;2023-07-29T02:56:53;13.80;99.90
22450;DHT22;11392;57.390;-2.468;2023-07-29T02:59:20;13.80;99.90
22450;DHT22;11392;57.390;-2.468;2023-07-29T03:01:47;13.80;99.90
22450;DHT22;11392;57.390;-2.468;2023-07-29T03:04:14;13.60;99.90
22450;DHT22;11392;57.390;-2.468;2023-07-29T03:06:41;13.50;99.90
22450;DHT22;11392;57.390;-2.468;2023-07-29T03:09:08;13.50;99.90
22450;DHT22;11392;57.390;-2.468;2023-07-29T03:11:36;13.60;99.90
22450;DHT22;11392;57.390;-2.468;2023-07-29T03:14:03;13.60;99.90
22450;DHT22;11392;57.390;-2.468;2023-07-29T03:16:30;13.70;99.90
22450;DHT22;11392;57.390;-2.468;2023-07-29T03:18:57;13.50;99.90
22450;DHT22;11392;57.390;-2.468;2023-07-29T03:21:25;13.40;99.90
22450;DHT22;11392;57.390;-2.468;2023-07-29T03:23:52;13.50;99.90
22450;DHT22;11392;57.390;-2.468;2023-07-29T03:26:19;13.50;99.90
22450;DHT22;11392;57.390;-2.468;2023-07-29T03:28:46;13.60;99.90
22450;DHT22;11392;57.390;-2.468;2023-07-29T03:31:13;13.60;99.90
22450;DHT22;11392;57.390;-2.468;2023-07-29T03:33:40;13.50;99.90
22450;DHT22;11392;57.390;-2.468;2023-07-29T03:36:07;13.50;99.90
22450;DHT22;11392;57.390;-2.468;2023-07-29T03:38:34;13.40;99.90
22450;DHT22;11392;57.390;-2.468;2023-07-29T03:41:02;13.50;99.90
22450;DHT22;11392;57.390;-2.468;2023-07-29T03:43:29;13.50;99.90
22450;DHT22;11392;57.390;-2.468;2023-07-29T03:45:56;13.50;99.90
22450;DHT22;11392;57.390;-2.468;2023-07-29T03:48:24;13.40;99.90
22450;DHT22;11392;57.390;-2.468;2023-07-29T03:50:51;13.40;99.90
22450;DHT22;11392;57.390;-2.468;2023-07-29T03:53:17;13.40;99.90
22450;DHT22;11392;57.390;-2.468;2023-07-29T03:55:44;13.40;99.90
22450;DHT22;11392;57.390;-2.468;2023-07-29T03:58:12;13.40;99.90
22450;DHT22;11392;57.390;-2.468;2023-07-29T04:00:39;13.40;99.90
22450;DHT22;11392;57.390;-2.468;2023-07-29T04:03:06;13.30;99.90
22450;DHT22;11392;57.390;-2.468;2023-07-29T04:05:33;13.30;99.90
22450;DHT22;11392;57.390;-2.468;2023-07-29T04:08:00;13.20;99.90
22450;DHT22;11392;57.390;-2.468;2023-07-29T04:10:27;13.10;99.90
22450;DHT22;11392;57.390;-2.468;2023-07-29T04:12:54;13.00;99.90
22450;DHT22;11392;57.390;-2.468;2023-07-29T04:15:21;13.00;99.90
22450;DHT22;11392;57.390;-2.468;2023-07-29T04:17:48;13.00;99.90
22450;DHT22;11392;57.390;-2.468;2023-07-29T04:20:15;13.00;99.90
22450;DHT22;11392;57.390;-2.468;2023-07-29T04:22:42;13.10;99.90
22450;DHT22;11392;57.390;-2.468;2023-07-29T04:25:09;13.10;99.90
22450;DHT22;11392;57.390;-2.468;2023-07-29T04:27:36;13.10;99.90
22450;DHT22;11392;57.390;-2.468;2023-07-29T04:30:03;13.10;99.90
22450;DHT22;11392;57.390;-2.468;2023-07-29T04:32:30;13.10;99.90
22450;DHT22;11392;57.390;-2.468;2023-07-29T04:34:57;13.20;99.90
22450;DHT22;11392;57.390;-2.468;2023-07-29T04:37:24;13.20;99.90
22450;DHT22;11392;57.390;-2.468;2023-07-29T04:39:51;13.20;99.90
22450;DHT22;11392;57.390;-2.468;2023-07-29T04:42:18;13.30;99.90
22450;DHT22;11392;57.390;-2.468;2023-07-29T04:44:45;13.20;99.90
22450;DHT22;11392;57.390;-2.468;2023-07-29T04:47:12;13.30;99.90
22450;DHT22;11392;57.390;-2.468;2023-07-29T04:49:39;13.30;99.90
22450;DHT22;11392;57.390;-2.468;2023-07-29T04:52:06;13.40;99.90
22450;DHT22;11392;57.390;-2.468;2023-07-29T04:54:33;13.30;99.90
22450;DHT22;11392;57.390;-2.468;2023-07-29T04:57:01;13.40;99.90
22450;DHT22;11392;57.390;-2.468;2023-07-29T04:59:28;13.40;99.90
22450;DHT22;11392;57.390;-2.468;2023-07-29T05:01:55;13.40;99.90
22450;DHT22;11392;57.390;-2.468;2023-07-29T05:04:22;13.40;99.90
22450;DHT22;11392;57.390;-2.468;2023-07-29T05:06:49;13.40;99.90
22450;DHT22;11392;57.390;-2.468;2023-07-29T05:09:18;13.30;99.90
22450;DHT22;11392;57.390;-2.468;2023-07-29T05:11:47;13.30;99.90
22450;DHT22;11392;57.390;-2.468;2023-07-29T05:14:14;13.30;99.90
22450;DHT22;11392;57.390;-2.468;2023-07-29T05:16:42;13.40;99.90
22450;DHT22;11392;57.390;-2.468;2023-07-29T05:19:09;13.40;99.90
22450;DHT22;11392;57.390;-2.468;2023-07-29T05:21:37;13.40;99.90
22450;DHT22;11392;57.390;-2.468;2023-07-29T05:24:05;13.50;99.90
22450;DHT22;11392;57.390;-2.468;2023-07-29T05:26:32;13.50;99.90
22450;DHT22;11392;57.390;-2.468;2023-07-29T05:29:00;13.50;99.90
22450;DHT22;11392;57.390;-2.468;2023-07-29T05:31:27;13.60;99.90
22450;DHT22;11392;57.390;-2.468;2023-07-29T05:33:54;13.60;99.90
22450;DHT22;11392;57.390;-2.468;2023-07-29T05:36:21;13.60;99.90
22450;DHT22;11392;57.390;-2.468;2023-07-29T05:38:49;13.70;99.90
22450;DHT22;11392;57.390;-2.468;2023-07-29T05:41:16;13.70;99.90
22450;DHT22;11392;57.390;-2.468;2023-07-29T05:43:43;13.70;99.90
22450;DHT22;11392;57.390;-2.468;2023-07-29T05:46:11;13.80;99.90
22450;DHT22;11392;57.390;-2.468;2023-07-29T05:48:39;13.80;99.90
22450;DHT22;11392;57.390;-2.468;2023-07-29T05:51:06;13.90;99.90
22450;DHT22;11392;57.390;-2.468;2023-07-29T05:53:33;14.00;99.90
22450;DHT22;11392;57.390;-2.468;2023-07-29T05:56:00;13.90;99.90
22450;DHT22;11392;57.390;-2.468;2023-07-29T05:58:27;13.90;99.90
22450;DHT22;11392;57.390;-2.468;2023-07-29T06:00:54;13.80;99.90
22450;DHT22;11392;57.390;-2.468;2023-07-29T06:03:21;13.80;99.90
22450;DHT22;11392;57.390;-2.468;2023-07-29T06:05:49;13.80;99.90
22450;DHT22;11392;57.390;-2.468;2023-07-29T06:08:20;14.00;99.90
22450;DHT22;11392;57.390;-2.468;2023-07-29T06:10:47;14.10;99.90
22450;DHT22;11392;57.390;-2.468;2023-07-29T06:13:14;14.20;99.90
22450;DHT22;11392;57.390;-2.468;2023-07-29T06:15:41;14.30;99.90
22450;DHT22;11392;57.390;-2.468;2023-07-29T06:18:08;14.20;99.90
22450;DHT22;11392;57.390;-2.468;2023-07-29T06:20:35;14.30;99.90
22450;DHT22;11392;57.390;-2.468;2023-07-29T06:23:02;14.30;99.90
22450;DHT22;11392;57.390;-2.468;2023-07-29T06:25:29;14.30;99.90
22450;DHT22;11392;57.390;-2.468;2023-07-29T06:27:56;14.30;99.90
22450;DHT22;11392;57.390;-2.468;2023-07-29T06:30:25;14.30;99.90
22450;DHT22;11392;57.390;-2.468;2023-07-29T06:32:52;14.30;99.90
22450;DHT22;11392;57.390;-2.468;2023-07-29T06:35:20;14.40;99.90
22450;DHT22;11392;57.390;-2.468;2023-07-29T06:37:47;14.30;99.90
22450;DHT22;11392;57.390;-2.468;2023-07-29T06:40:14;14.30;99.90
22450;DHT22;11392;57.390;-2.468;2023-07-29T06:42:41;14.30;99.90
22450;DHT22;11392;57.390;-2.468;2023-07-29T06:45:09;14.30;99.90
22450;DHT22;11392;57.390;-2.468;2023-07-29T06:47:36;14.50;99.90
22450;DHT22;11392;57.390;-2.468;2023-07-29T06:50:04;14.60;99.90
22450;DHT22;11392;57.390;-2.468;2023-07-29T06:52:31;14.70;99.90
22450;DHT22;11392;57.390;-2.468;2023-07-29T06:54:58;14.70;99.90
22450;DHT22;11392;57.390;-2.468;2023-07-29T06:57:25;14.90;99.90
22450;DHT22;11392;57.390;-2.468;2023-07-29T06:59:52;14.80;99.90
22450;DHT22;11392;57.390;-2.468;2023-07-29T07:02:19;14.90;99.90
22450;DHT22;11392;57.390;-2.468;2023-07-29T07:04:46;15.00;99.90
22450;DHT22;11392;57.390;-2.468;2023-07-29T07:07:13;15.10;99.90
22450;DHT22;11392;57.390;-2.468;2023-07-29T07:09:40;15.10;99.90
22450;DHT22;11392;57.390;-2.468;2023-07-29T07:12:07;15.20;99.90
22450;DHT22;11392;57.390;-2.468;2023-07-29T07:14:34;15.20;99.90
22450;DHT22;11392;57.390;-2.468;2023-07-29T07:17:01;15.30;99.90
22450;DHT22;11392;57.390;-2.468;2023-07-29T07:19:28;15.30;99.90
22450;DHT22;11392;57.390;-2.468;2023-07-29T07:21:55;15.30;99.90
22450;DHT22;11392;57.390;-2.468;2023-07-29T07:24:22;15.40;99.90
22450;DHT22;11392;57.390;-2.468;2023-07-29T07:26:49;15.40;99.90
22450;DHT22;11392;57.390;-2.468;2023-07-29T07:29:16;15.40;99.90
22450;DHT22;11392;57.390;-2.468;2023-07-29T07:31:53;15.50;99.90
22450;DHT22;11392;57.390;-2.468;2023-07-29T07:34:21;15.50;99.90
22450;DHT22;11392;57.390;-2.468;2023-07-29T07:36:48;15.50;99.90
22450;DHT22;11392;57.390;-2.468;2023-07-29T07:39:15;15.50;99.90
22450;DHT22;11392;57.390;-2.468;2023-07-29T07:41:42;15.50;99.90
22450;DHT22;11392;57.390;-2.468;2023-07-29T07:44:10;15.40;99.90
22450;DHT22;11392;57.390;-2.468;2023-07-29T07:46:37;15.40;99.90
22450;DHT22;11392;57.390;-2.468;2023-07-29T07:49:05;15.40;99.90
22450;DHT22;11392;57.390;-2.468;2023-07-29T07:51:32;15.40;99.90
22450;DHT22;11392;57.390;-2.468;2023-07-29T07:53:59;15.30;99.90
22450;DHT22;11392;57.390;-2.468;2023-07-29T07:56:26;15.30;99.90
22450;DHT22;11392;57.390;-2.468;2023-07-29T07:58:53;15.40;99.90
22450;DHT22;11392;57.390;-2.468;2023-07-29T08:01:20;15.40;99.90
22450;DHT22;11392;57.390;-2.468;2023-07-29T08:03:47;15.40;99.90
22450;DHT22;11392;57.390;-2.468;2023-07-29T08:06:14;15.50;99.90
22450;DHT22;11392;57.390;-2.468;2023-07-29T08:08:41;15.50;99.90
22450;DHT22;11392;57.390;-2.468;2023-07-29T08:11:08;15.60;99.90
22450;DHT22;11392;57.390;-2.468;2023-07-29T08:13:35;15.60;99.90
22450;DHT22;11392;57.390;-2.468;2023-07-29T08:16:02;15.70;99.90
22450;DHT22;11392;57.390;-2.468;2023-07-29T08:18:29;15.70;99.90
22450;DHT22;11392;57.390;-2.468;2023-07-29T08:20:58;15.80;99.90
22450;DHT22;11392;57.390;-2.468;2023-07-29T08:23:26;15.80;99.90
22450;DHT22;11392;57.390;-2.468;2023-07-29T08:25:57;15.90;99.90
22450;DHT22;11392;57.390;-2.468;2023-07-29T08:28:37;15.90;99.90
22450;DHT22;11392;57.390;-2.468;2023-07-29T08:31:05;16.00;99.90
22450;DHT22;11392;57.390;-2.468;2023-07-29T08:33:33;16.00;99.90
22450;DHT22;11392;57.390;-2.468;2023-07-29T08:36:01;16.00;99.90
22450;DHT22;11392;57.390;-2.468;2023-07-29T08:38:28;16.00;99.90
22450;DHT22;11392;57.390;-2.468;2023-07-29T08:41:25;16.10;99.90
22450;DHT22;11392;57.390;-2.468;2023-07-29T08:44:03;16.20;99.90
22450;DHT22;11392;57.390;-2.468;2023-07-29T08:46:36;16.20;99.90
22450;DHT22;11392;57.390;-2.468;2023-07-29T08:49:05;16.30;99.90
22450;DHT22;11392;57.390;-2.468;2023-07-29T08:51:32;16.20;99.90
22450;DHT22;11392;57.390;-2.468;2023-07-29T08:54:00;16.10;99.90
22450;DHT22;11392;57.390;-2.468;2023-07-29T08:56:28;16.20;99.90
22450;DHT22;11392;57.390;-2.468;2023-07-29T08:58:57;16.30;99.90
22450;DHT22;11392;57.390;-2.468;2023-07-29T09:01:25;16.20;99.90
22450;DHT22;11392;57.390;-2.468;2023-07-29T09:03:52;16.10;99.90
22450;DHT22;11392;57.390;-2.468;2023-07-29T09:06:20;16.20;99.90
22450;DHT22;11392;57.390;-2.468;2023-07-29T09:08:49;16.20;99.90
22450;DHT22;11392;57.390;-2.468;2023-07-29T09:11:17;16.20;99.90
22450;DHT22;11392;57.390;-2.468;2023-07-29T09:13:45;16.30;99.90
22450;DHT22;11392;57.390;-2.468;2023-07-29T09:16:13;16.30;99.90
22450;DHT22;11392;57.390;-2.468;2023-07-29T09:18:40;16.30;99.90
22450;DHT22;11392;57.390;-2.468;2023-07-29T09:21:08;16.30;99.90
22450;DHT22;11392;57.390;-2.468;2023-07-29T09:23:42;16.50;99.90
22450;DHT22;11392;57.390;-2.468;2023-07-29T09:26:09;16.60;99.90
22450;DHT22;11392;57.390;-2.468;2023-07-29T09:28:38;16.70;99.90
22450;DHT22;11392;57.390;-2.468;2023-07-29T09:31:06;16.90;99.90
22450;DHT22;11392;57.390;-2.468;2023-07-29T09:33:34;17.10;99.90
22450;DHT22;11392;57.390;-2.468;2023-07-29T09:36:11;17.10;99.90
22450;DHT22;11392;57.390;-2.468;2023-07-29T09:38:38;17.10;99.90
22450;DHT22;11392;57.390;-2.468;2023-07-29T09:41:06;17.20;99.90
22450;DHT22;11392;57.390;-2.468;2023-07-29T09:43:34;17.20;99.90
22450;DHT22;11392;57.390;-2.468;2023-07-29T09:46:05;17.20;99.90
22450;DHT22;11392;57.390;-2.468;2023-07-29T09:48:36;17.50;99.90
22450;DHT22;11392;57.390;-2.468;2023-07-29T09:51:11;17.50;99.90
22450;DHT22;11392;57.390;-2.468;2023-07-29T09:53:46;17.50;99.90
22450;DHT22;11392;57.390;-2.468;2023-07-29T09:56:14;17.40;99.90
22450;DHT22;11392;57.390;-2.468;2023-07-29T09:58:45;17.50;99.90
22450;DHT22;11392;57.390;-2.468;2023-07-29T10:01:13;17.30;99.90
22450;DHT22;11392;57.390;-2.468;2023-07-29T10:03:41;17.30;99.90
22450;DHT22;11392;57.390;-2.468;2023-07-29T10:06:09;17.30;99.90
22450;DHT22;11392;57.390;-2.468;2023-07-29T10:08:37;17.30;99.90
22450;DHT22;11392;57.390;-2.468;2023-07-29T10:11:10;17.40;99.90
22450;DHT22;11392;57.390;-2.468;2023-07-29T10:13:38;17.50;99.90
22450;DHT22;11392;57.390;-2.468;2023-07-29T10:16:05;17.60;99.90
22450;DHT22;11392;57.390;-2.468;2023-07-29T10:18:33;17.50;99.90
22450;DHT22;11392;57.390;-2.468;2023-07-29T10:21:01;17.60;99.90
22450;DHT22;11392;57.390;-2.468;2023-07-29T10:23:34;17.60;99.90
22450;DHT22;11392;57.390;-2.468;2023-07-29T10:26:06;17.90;99.90
22450;DHT22;11392;57.390;-2.468;2023-07-29T10:28:40;18.00;99.90
22450;DHT22;11392;57.390;-2.468;2023-07-29T10:31:08;18.00;99.90
22450;DHT22;11392;57.390;-2.468;2023-07-29T10:33:37;18.00;99.90
22450;DHT22;11392;57.390;-2.468;2023-07-29T10:36:05;18.10;99.90
22450;DHT22;11392;57.390;-2.468;2023-07-29T10:38:32;18.20;99.90
22450;DHT22;11392;57.390;-2.468;2023-07-29T10:41:00;18.30;99.90
22450;DHT22;11392;57.390;-2.468;2023-07-29T10:43:32;18.40;99.90
22450;DHT22;11392;57.390;-2.468;2023-07-29T10:48:56;18.60;99.90
22450;DHT22;11392;57.390;-2.468;2023-07-29T10:54:18;18.70;99.90
22450;DHT22;11392;57.390;-2.468;2023-07-29T10:56:48;18.70;99.90
22450;DHT22;11392;57.390;-2.468;2023-07-29T11:01:59;18.90;99.90
22450;DHT22;11392;57.390;-2.468;2023-07-29T11:04:28;19.10;99.90
22450;DHT22;11392;57.390;-2.468;2023-07-29T11:12:52;19.40;99.90
22450;DHT22;11392;57.390;-2.468;2023-07-29T11:15:28;19.50;99.90
22450;DHT22;11392;57.390;-2.468;2023-07-29T11:17:57;19.30;99.90
22450;DHT22;11392;57.390;-2.468;2023-07-29T11:20:26;19.40;99.90
22450;DHT22;11392;57.390;-2.468;2023-07-29T11:22:54;19.80;99.90
22450;DHT22;11392;57.390;-2.468;2023-07-29T11:25:23;20.30;99.90
22450;DHT22;11392;57.390;-2.468;2023-07-29T11:27:52;20.90;99.90
22450;DHT22;11392;57.390;-2.468;2023-07-29T11:30:20;21.60;99.90
22450;DHT22;11392;57.390;-2.468;2023-07-29T11:32:47;22.10;99.90
22450;DHT22;11392;57.390;-2.468;2023-07-29T11:35:16;22.20;99.90
22450;DHT22;11392;57.390;-2.468;2023-07-29T11:37:45;22.30;99.90
22450;DHT22;11392;57.390;-2.468;2023-07-29T11:40:16;22.60;99.90
22450;DHT22;11392;57.390;-2.468;2023-07-29T11:42:45;22.30;99.90
22450;DHT22;11392;57.390;-2.468;2023-07-29T11:45:13;22.30;99.90
22450;DHT22;11392;57.390;-2.468;2023-07-29T11:47:44;22.60;99.90
22450;DHT22;11392;57.390;-2.468;2023-07-29T11:50:12;22.50;99.90
22450;DHT22;11392;57.390;-2.468;2023-07-29T11:52:44;22.30;99.90
22450;DHT22;11392;57.390;-2.468;2023-07-29T11:55:13;22.90;99.90
22450;DHT22;11392;57.390;-2.468;2023-07-29T11:57:42;23.10;99.90
22450;DHT22;11392;57.390;-2.468;2023-07-29T12:00:11;23.50;99.90
22450;DHT22;11392;57.390;-2.468;2023-07-29T12:02:41;24.00;99.90
22450;DHT22;11392;57.390;-2.468;2023-07-29T12:05:12;24.50;99.90
22450;DHT22;11392;57.390;-2.468;2023-07-29T12:07:42;24.70;99.90
22450;DHT22;11392;57.390;-2.468;2023-07-29T12:10:10;24.30;99.90
22450;DHT22;11392;57.390;-2.468;2023-07-29T12:12:50;24.10;99.90
22450;DHT22;11392;57.390;-2.468;2023-07-29T12:15:28;24.10;99.90
22450;DHT22;11392;57.390;-2.468;2023-07-29T12:17:56;24.40;99.90
22450;DHT22;11392;57.390;-2.468;2023-07-29T12:20:25;24.70;99.90
22450;DHT22;11392;57.390;-2.468;2023-07-29T12:22:56;24.90;99.90
22450;DHT22;11392;57.390;-2.468;2023-07-29T12:25:25;25.10;99.90
22450;DHT22;11392;57.390;-2.468;2023-07-29T12:27:52;25.20;99.90
22450;DHT22;11392;57.390;-2.468;2023-07-29T12:30:23;25.10;99.90
22450;DHT22;11392;57.390;-2.468;2023-07-29T12:32:50;25.50;99.90
22450;DHT22;11392;57.390;-2.468;2023-07-29T12:35:17;26.10;99.90
22450;DHT22;11392;57.390;-2.468;2023-07-29T12:37:44;26.00;99.90
22450;DHT22;11392;57.390;-2.468;2023-07-29T12:40:21;25.80;99.90
22450;DHT22;11392;57.390;-2.468;2023-07-29T12:42:50;25.50;99.90
22450;DHT22;11392;57.390;-2.468;2023-07-29T12:45:18;25.60;99.90
22450;DHT22;11392;57.390;-2.468;2023-07-29T12:47:45;25.20;99.90
22450;DHT22;11392;57.390;-2.468;2023-07-29T12:50:13;25.10;99.90
22450;DHT22;11392;57.390;-2.468;2023-07-29T12:52:40;24.90;99.90
22450;DHT22;11392;57.390;-2.468;2023-07-29T12:55:07;24.70;99.90
22450;DHT22;11392;57.390;-2.468;2023-07-29T12:57:35;24.70;99.90
22450;DHT22;11392;57.390;-2.468;2023-07-29T13:00:03;25.00;99.90
22450;DHT22;11392;57.390;-2.468;2023-07-29T13:02:31;25.30;99.90
22450;DHT22;11392;57.390;-2.468;2023-07-29T13:04:59;25.30;99.90
22450;DHT22;11392;57.390;-2.468;2023-07-29T13:07:26;25.60;99.90
22450;DHT22;11392;57.390;-2.468;2023-07-29T13:09:53;26.00;99.90
22450;DHT22;11392;57.390;-2.468;2023-07-29T13:12:20;25.60;99.90
22450;DHT22;11392;57.390;-2.468;2023-07-29T13:14:47;25.80;99.90
22450;DHT22;11392;57.390;-2.468;2023-07-29T13:17:14;25.90;99.90
22450;DHT22;11392;57.390;-2.468;2023-07-29T13:19:41;25.90;99.90
22450;DHT22;11392;57.390;-2.468;2023-07-29T13:22:08;25.90;99.90
22450;DHT22;11392;57.390;-2.468;2023-07-29T13:24:35;25.90;99.90
22450;DHT22;11392;57.390;-2.468;2023-07-29T13:27:02;25.80;99.90
22450;DHT22;11392;57.390;-2.468;2023-07-29T13:29:29;25.70;99.90
22450;DHT22;11392;57.390;-2.468;2023-07-29T13:31:56;26.00;99.90
22450;DHT22;11392;57.390;-2.468;2023-07-29T13:34:23;26.30;99.90
22450;DHT22;11392;57.390;-2.468;2023-07-29T13:36:50;26.40;99.90
22450;DHT22;11392;57.390;-2.468;2023-07-29T13:39:17;26.20;99.90
22450;DHT22;11392;57.390;-2.468;2023-07-29T13:41:44;26.80;99.90
22450;DHT22;11392;57.390;-2.468;2023-07-29T13:44:11;26.50;99.90
22450;DHT22;11392;57.390;-2.468;2023-07-29T13:46:38;25.60;99.90
22450;DHT22;11392;57.390;-2.468;2023-07-29T13:49:06;25.20;99.90
22450;DHT22;11392;57.390;-2.468;2023-07-29T13:51:33;24.90;99.90
22450;DHT22;11392;57.390;-2.468;2023-07-29T13:54:00;25.20;99.90
22450;DHT22;11392;57.390;-2.468;2023-07-29T13:56:27;25.30;99.90
22450;DHT22;11392;57.390;-2.468;2023-07-29T13:58:54;25.20;99.90
22450;DHT22;11392;57.390;-2.468;2023-07-29T14:01:21;25.10;99.90
22450;DHT22;11392;57.390;-2.468;2023-07-29T14:03:49;25.20;99.90
22450;DHT22;11392;57.390;-2.468;2023-07-29T14:06:16;25.20;99.90
22450;DHT22;11392;57.390;-2.468;2023-07-29T14:08:44;24.50;99.90
22450;DHT22;11392;57.390;-2.468;2023-07-29T14:11:11;24.00;99.90
22450;DHT22;11392;57.390;-2.468;2023-07-29T14:13:38;24.30;99.90
22450;DHT22;11392;57.390;-2.468;2023-07-29T14:16:05;24.40;99.90
22450;DHT22;11392;57.390;-2.468;2023-07-29T14:18:32;24.30;99.90
22450;DHT22;11392;57.390;-2.468;2023-07-29T14:20:59;24.40;99.90
22450;DHT22;11392;57.390;-2.468;2023-07-29T14:23:26;24.70;99.90
22450;DHT22;11392;57.390;-2.468;2023-07-29T14:25:53;24.90;99.90
22450;DHT22;11392;57.390;-2.468;2023-07-29T14:28:20;24.70;99.90
22450;DHT22;11392;57.390;-2.468;2023-07-29T14:30:48;24.60;99.90
22450;DHT22;11392;57.390;-2.468;2023-07-29T14:33:15;24.60;99.90
22450;DHT22;11392;57.390;-2.468;2023-07-29T14:35:42;24.80;99.90
22450;DHT22;11392;57.390;-2.468;2023-07-29T14:38:09;25.10;99.90
22450;DHT22;11392;57.390;-2.468;2023-07-29T14:40:36;24.90;99.90
22450;DHT22;11392;57.390;-2.468;2023-07-29T14:43:04;24.50;99.90
22450;DHT22;11392;57.390;-2.468;2023-07-29T14:45:31;25.00;99.90
22450;DHT22;11392;57.390;-2.468;2023-07-29T14:47:58;25.10;99.90
22450;DHT22;11392;57.390;-2.468;2023-07-29T14:50:25;25.00;99.90
22450;DHT22;11392;57.390;-2.468;2023-07-29T14:52:52;24.50;99.90
22450;DHT22;11392;57.390;-2.468;2023-07-29T14:55:20;23.80;99.90
22450;DHT22;11392;57.390;-2.468;2023-07-29T14:57:47;23.60;99.90
22450;DHT22;11392;57.390;-2.468;2023-07-29T15:00:14;23.80;99.90
22450;DHT22;11392;57.390;-2.468;2023-07-29T15:02:41;23.70;99.90
22450;DHT22;11392;57.390;-2.468;2023-07-29T15:05:09;23.70;99.90
22450;DHT22;11392;57.390;-2.468;2023-07-29T15:07:36;23.90;99.90
22450;DHT22;11392;57.390;-2.468;2023-07-29T15:10:03;24.10;99.90
22450;DHT22;11392;57.390;-2.468;2023-07-29T15:12:30;23.70;99.90
22450;DHT22;11392;57.390;-2.468;2023-07-29T15:14:57;23.40;99.90
22450;DHT22;11392;57.390;-2.468;2023-07-29T15:17:24;23.30;99.90
22450;DHT22;11392;57.390;-2.468;2023-07-29T15:19:51;23.30;99.90
22450;DHT22;11392;57.390;-2.468;2023-07-29T15:22:18;23.00;99.90
22450;DHT22;11392;57.390;-2.468;2023-07-29T15:24:45;22.60;99.90
22450;DHT22;11392;57.390;-2.468;2023-07-29T15:27:13;22.50;99.90
22450;DHT22;11392;57.390;-2.468;2023-07-29T15:29:40;22.70;99.90
22450;DHT22;11392;57.390;-2.468;2023-07-29T15:32:07;23.30;99.90
22450;DHT22;11392;57.390;-2.468;2023-07-29T15:34:34;23.70;99.90
22450;DHT22;11392;57.390;-2.468;2023-07-29T15:37:02;23.80;99.90
22450;DHT22;11392;57.390;-2.468;2023-07-29T15:39:30;23.60;99.90
22450;DHT22;11392;57.390;-2.468;2023-07-29T15:41:58;23.20;99.90
22450;DHT22;11392;57.390;-2.468;2023-07-29T15:44:25;22.80;99.90
22450;DHT22;11392;57.390;-2.468;2023-07-29T15:46:52;22.80;99.90
22450;DHT22;11392;57.390;-2.468;2023-07-29T15:49:19;22.80;99.90